Time;durP1;ratioP1;P1;durP2;ratioP2;P2;SDS_P1;SDS_P2;PMS_P1;PMS_P2;Temp;Humidity;BMP_temperature;BMP_pressure;BME280_temperature;BME280_humidity;BME280_pressure;Samples;Min_cycle;Max_cycle;Signal;HPM_P1;HPM_P2
2023/02/09 00:01:03;;;;;;;;;;;;;;;;;;5047670;28;4971;-58
2023/02/09 00:03:28;;;;;;;;;;;;;;;;;;5045031;28;5064;-58
2023/02/09 00:05:53;;;;;;;;;;;;;;;;;;5043820;28;3426;-59
2023/02/09 00:08:19;;;;;;;;;;;;;;;;;;5042871;28;4992;-59
2023/02/09 00:10:44;;;;;;;;;;;;;;;;;;5044337;28;5073;-60
2023/02/09 00:13:22;;;;;;;;;;;;;;;;;;5041871;28;4504;-58
2023/02/09 00:15:51;;;;;;;;;;;;;;;;;;5042919;28;4585;-59
2023/02/09 00:18:16;;;;;;;;;;;;;;;;;;5047626;28;5057;-59
2023/02/09 00:20:41;;;;;;;;;;;;;;;;;;5049724;28;1096;-59
2023/02/09 00:23:07;;;;;;;;;;;;;;;;;;5049212;28;5157;-58
2023/02/09 00:25:32;;;;;;;;;;;;;;;;;;5046936;28;5645;-59
2023/02/09 00:27:57;;;;;;;;;;;;;;;;;;5046856;28;5293;-58
2023/02/09 00:30:22;;;;;;;;;;;;;;;;;;5047425;28;4971;-58
2023/02/09 00:32:48;;;;;;;;;;;;;;;;;;5046214;28;3475;-59
2023/02/09 00:35:13;;;;;;;;;;;;;;;;;;5041176;28;5162;-59
2023/02/09 00:37:38;;;;;;;;;;;;;;;;;;5040094;28;5226;-59
2023/02/09 00:40:04;;;;;;;;;;;;;;;;;;5045719;28;5056;-59
2023/02/09 00:42:29;;;;;;;;;;;;;;;;;;5044487;28;4927;-58
2023/02/09 00:44:54;;;;;;;;;;;;;;;;;;5039169;28;5098;-58
2023/02/09 00:47:19;;;;;;;;;;;;;;;;;;5041898;28;3345;-59
2023/02/09 00:49:45;;;;;;;;;;;;;;;;;;5042726;28;5193;-59
2023/02/09 00:52:10;;;;;;;;;;;;;;;;;;5044070;28;5033;-59
2023/02/09 00:54:35;;;;;;;;;;;;;;;;;;5037299;28;5126;-59
2023/02/09 00:57:04;;;;;;;;;;;;;;;;;;5040526;28;5050;-58
2023/02/09 00:59:29;;;;;;;;;;;;;;;;;;5039151;28;3346;-58
2023/02/09 01:01:55;;;;;;;;;;;;;;;;;;5044512;28;5015;-58
2023/02/09 01:04:20;;;;;;;;;;;;;;;;;;5042937;28;4683;-59
2023/02/09 01:06:45;;;;;;;;;;;;;;;;;;5038110;28;5096;-58
2023/02/09 01:09:10;;;;;;;;;;;;;;;;;;5044017;28;5098;-58
2023/02/09 01:11:36;;;;;;;;;;;;;;;;;;5044126;28;3237;-58
2023/02/09 01:14:03;;;;;;;;;;;;;;;;;;5044253;28;4980;-59
2023/02/09 01:16:30;;;;;;;;;;;;;;;;;;5048063;28;5097;-59
2023/02/09 01:18:55;;;;;;;;;;;;;;;;;;5044344;28;5097;-59
2023/02/09 01:21:20;;;;;;;;;;;;;;;;;;5042368;28;5029;-59
2023/02/09 01:23:46;;;;;;;;;;;;;;;;;;5051630;28;3242;-58
2023/02/09 01:26:11;;;;;;;;;;;;;;;;;;5047334;28;5050;-58
2023/02/09 01:28:36;;;;;;;;;;;;;;;;;;5050835;28;4786;-58
2023/02/09 01:31:02;;;;;;;;;;;;;;;;;;5048748;28;5109;-59
2023/02/09 01:33:28;;;;;;;;;;;;;;;;;;5050895;28;5081;-57
2023/02/09 01:35:56;;;;;;;;;;;;;;;;;;5047725;28;2986;-58
2023/02/09 01:38:22;;;;;;;;;;;;;;;;;;5046663;28;4419;-58
2023/02/09 01:40:47;;;;;;;;;;;;;;;;;;5049147;28;4548;-59
2023/02/09 01:43:12;;;;;;;;;;;;;;;;;;5050185;28;5075;-58
2023/02/09 01:45:48;;;;;;;;;;;;;;;;;;5082284;28;5048;-59
2023/02/09 01:48:14;;;;;;;;;;;;;;;;;;5054141;28;5097;-58
2023/02/09 01:50:40;;;;;;;;;;;;;;;;;;5085003;28;1129;-59
2023/02/09 01:53:05;;;;;;;;;;;;;;;;;;5050951;28;4972;-58
2023/02/09 01:55:31;;;;;;;;;;;;;;;;;;5048417;28;5113;-58
2023/02/09 01:57:59;;;;;;;;;;;;;;;;;;5045507;28;5033;-58
2023/02/09 02:00:24;;;;;;;;;;;;;;;;;;5055244;28;5130;-58
2023/02/09 02:02:51;;;;;;;;;;;;;;;;;;5049274;28;1131;-58
2023/02/09 02:05:16;;;;;;;;;;;;;;;;;;5048920;28;5021;-58
2023/02/09 02:07:44;;;;;;;;;;;;;;;;;;5041746;28;5441;-59
2023/02/09 02:10:09;;;;;;;;;;;;;;;;;;5038270;28;5142;-58
2023/02/09 02:12:34;;;;;;;;;;;;;;;;;;5042224;28;4671;-59
2023/02/09 02:15:00;;;;;;;;;;;;;;;;;;5029011;28;5118;-59
2023/02/09 02:17:28;;;;;;;;;;;;;;;;;;5046306;28;3353;-58
2023/02/09 02:20:12;;;;;;;;;;;;;;;;;;5049727;28;5050;-59
2023/02/09 02:22:40;;;;;;;;;;;;;;;;;;5049874;28;5142;-59
2023/02/09 02:25:24;;;;;;;;;;;;;;;;;;5041839;28;5620;-58
2023/02/09 02:27:59;;;;;;;;;;;;;;;;;;5047053;28;5127;-58
2023/02/09 02:30:30;;;;;;;;;;;;;;;;;;5045178;28;5143;-58
2023/02/09 02:33:16;;;;;;;;;;;;;;;;;;5051573;28;5095;-58
2023/02/09 02:35:53;;;;;;;;;;;;;;;;;;5047050;28;3274;-59
2023/02/09 02:38:21;;;;;;;;;;;;;;;;;;5043742;28;4784;-59
2023/02/09 02:40:54;;;;;;;;;;;;;;;;;;5046695;28;4990;-59
2023/02/09 02:43:28;;;;;;;;;;;;;;;;;;5045262;28;5044;-58
2023/02/09 02:46:17;;;;;;;;;;;;;;;;;;5072426;28;4520;-58
2023/02/09 02:48:45;;;;;;;;;;;;;;;;;;5032928;28;5073;-58
2023/02/09 02:51:16;;;;;;;;;;;;;;;;;;5044373;28;5161;-58
2023/02/09 02:53:41;;;;;;;;;;;;;;;;;;5045195;28;3301;-58
2023/02/09 02:56:11;;;;;;;;;;;;;;;;;;5043733;28;4635;-58
2023/02/09 02:58:37;;;;;;;;;;;;;;;;;;5042584;28;4489;-59
2023/02/09 03:01:02;;;;;;;;;;;;;;;;;;5025830;28;4723;-59
2023/02/09 03:03:31;;;;;;;;;;;;;;;;;;5048850;28;4924;-58
2023/02/09 03:05:57;;;;;;;;;;;;;;;;;;5042322;28;5147;-58
2023/02/09 03:08:22;;;;;;;;;;;;;;;;;;5045755;28;3316;-59
2023/02/09 03:10:47;;;;;;;;;;;;;;;;;;5043874;28;4970;-58
2023/02/09 03:13:12;;;;;;;;;;;;;;;;;;5043628;28;5029;-59
2023/02/09 03:15:44;;;;;;;;;;;;;;;;;;5044059;28;4483;-58
2023/02/09 03:18:09;;;;;;;;;;;;;;;;;;5044413;28;4675;-59
2023/02/09 03:20:49;;;;;;;;;;;;;;;;;;5046844;28;3425;-58
2023/02/09 03:23:33;;;;;;;;;;;;;;;;;;5047003;28;5324;-58
2023/02/09 03:26:01;;;;;;;;;;;;;;;;;;5040829;28;5116;-58
2023/02/09 03:28:27;;;;;;;;;;;;;;;;;;5076187;28;5062;-59
2023/02/09 03:30:53;;;;;;;;;;;;;;;;;;5044208;28;4672;-58
2023/02/09 03:33:19;;;;;;;;;;;;;;;;;;5074447;28;5580;-58
2023/02/09 03:35:46;;;;;;;;;;;;;;;;;;5050220;28;3323;-58
2023/02/09 03:38:11;;;;;;;;;;;;;;;;;;5045029;28;4411;-58
2023/02/09 03:40:36;;;;;;;;;;;;;;;;;;5044150;28;5015;-58
2023/02/09 03:43:02;;;;;;;;;;;;;;;;;;5037851;28;5455;-58
2023/02/09 03:45:27;;;;;;;;;;;;;;;;;;5042632;28;5095;-58
2023/02/09 03:47:52;;;;;;;;;;;;;;;;;;5043767;28;3429;-59
2023/02/09 03:50:18;;;;;;;;;;;;;;;;;;5041990;28;4953;-59
2023/02/09 03:52:43;;;;;;;;;;;;;;;;;;5044820;28;5347;-58
2023/02/09 03:55:08;;;;;;;;;;;;;;;;;;5043484;28;5331;-59
2023/02/09 03:57:35;;;;;;;;;;;;;;;;;;5047618;28;4511;-58
2023/02/09 04:00:00;;;;;;;;;;;;;;;;;;5044145;28;5211;-59
2023/02/09 04:02:25;;;;;;;;;;;;;;;;;;5044923;28;3507;-59
2023/02/09 04:04:52;;;;;;;;;;;;;;;;;;5043780;28;5034;-58
2023/02/09 04:07:17;;;;;;;;;;;;;;;;;;5036922;28;5051;-58
2023/02/09 04:09:42;;;;;;;;;;;;;;;;;;5045100;28;5567;-59
2023/02/09 04:12:08;;;;;;;;;;;;;;;;;;5042202;28;5175;-58
2023/02/09 04:14:33;;;;;;;;;;;;;;;;;;5042673;28;3325;-58
2023/02/09 04:16:58;;;;;;;;;;;;;;;;;;5043122;28;5172;-58
2023/02/09 04:19:24;;;;;;;;;;;;;;;;;;5044426;28;5049;-59
2023/02/09 04:21:49;;;;;;;;;;;;;;;;;;5045499;28;4991;-58
2023/02/09 04:24:14;;;;;;;;;;;;;;;;;;5042573;28;4850;-58
2023/02/09 04:26:39;;;;;;;;;;;;;;;;;;5046865;28;3307;-58
2023/02/09 04:29:05;;;;;;;;;;;;;;;;;;5071414;28;4699;-58
2023/02/09 04:31:30;;;;;;;;;;;;;;;;;;5044479;28;5069;-58
2023/02/09 04:33:55;;;;;;;;;;;;;;;;;;5044507;28;4980;-58
2023/02/09 04:36:22;;;;;;;;;;;;;;;;;;5044213;28;5121;-59
2023/02/09 04:38:47;;;;;;;;;;;;;;;;;;5046554;28;3441;-58
2023/02/09 04:41:13;;;;;;;;;;;;;;;;;;5042685;28;5149;-58
2023/02/09 04:43:38;;;;;;;;;;;;;;;;;;5038336;28;4708;-58
2023/02/09 04:46:03;;;;;;;;;;;;;;;;;;5048530;28;5213;-58
2023/02/09 04:48:28;;;;;;;;;;;;;;;;;;5042807;28;5265;-58
2023/02/09 04:50:54;;;;;;;;;;;;;;;;;;5046510;28;3238;-58
2023/02/09 04:53:19;;;;;;;;;;;;;;;;;;5047769;28;5353;-59
2023/02/09 04:55:45;;;;;;;;;;;;;;;;;;5073700;28;5051;-60
2023/02/09 05:00:55;;;;;;;;;;;;;;;;;;5069007;28;4808;-60
2023/02/09 05:03:21;;;;;;;;;;;;;;;;;;5040488;28;5139;-60
2023/02/09 05:05:46;;;;;;;;;;;;;;;;;;5048175;28;2173;-60
2023/02/09 05:08:11;;;;;;;;;;;;;;;;;;5045300;28;5573;-60
2023/02/09 05:10:36;;;;;;;;;;;;;;;;;;5047628;28;4957;-60
2023/02/09 05:13:02;;;;;;;;;;;;;;;;;;5042051;28;5106;-60
2023/02/09 05:15:27;;;;;;;;;;;;;;;;;;5040937;28;4513;-60
2023/02/09 05:17:52;;;;;;;;;;;;;;;;;;5048617;28;1422;-60
2023/02/09 05:20:17;;;;;;;;;;;;;;;;;;5038597;28;5151;-59
2023/02/09 05:22:43;;;;;;;;;;;;;;;;;;5044862;28;5075;-59
2023/02/09 05:25:08;;;;;;;;;;;;;;;;;;5042972;28;5562;-59
2023/02/09 05:27:33;;;;;;;;;;;;;;;;;;5046858;28;4864;-59
2023/02/09 05:29:58;;;;;;;;;;;;;;;;;;5046898;28;4512;-59
2023/02/09 05:32:24;;;;;;;;;;;;;;;;;;5047122;28;2249;-60
2023/02/09 05:34:49;;;;;;;;;;;;;;;;;;5042813;28;5068;-59
2023/02/09 05:37:14;;;;;;;;;;;;;;;;;;5036657;28;4651;-59
2023/02/09 05:39:39;;;;;;;;;;;;;;;;;;5040369;28;4543;-59
2023/02/09 05:42:14;;;;;;;;;;;;;;;;;;5074847;28;5035;-59
2023/02/09 05:44:39;;;;;;;;;;;;;;;;;;5046334;28;4728;-59
2023/02/09 05:47:04;;;;;;;;;;;;;;;;;;5044479;28;5227;-59
2023/02/09 05:49:30;;;;;;;;;;;;;;;;;;5042549;28;4623;-58
2023/02/09 05:51:55;;;;;;;;;;;;;;;;;;5046248;28;5032;-59
2023/02/09 05:54:20;;;;;;;;;;;;;;;;;;5045555;28;4491;-59
2023/02/09 05:56:45;;;;;;;;;;;;;;;;;;5044530;28;3390;-59
2023/02/09 05:59:11;;;;;;;;;;;;;;;;;;5042027;28;5100;-59
2023/02/09 06:01:36;;;;;;;;;;;;;;;;;;5041571;28;4646;-59
2023/02/09 06:04:01;;;;;;;;;;;;;;;;;;5042522;28;4495;-60
2023/02/09 06:06:26;;;;;;;;;;;;;;;;;;5048419;28;4845;-60
2023/02/09 06:08:52;;;;;;;;;;;;;;;;;;5044175;28;3298;-59
2023/02/09 06:11:18;;;;;;;;;;;;;;;;;;5044441;28;4622;-59
2023/02/09 06:13:43;;;;;;;;;;;;;;;;;;5044735;28;5002;-60
2023/02/09 06:16:08;;;;;;;;;;;;;;;;;;5044248;28;5186;-60
2023/02/09 06:18:34;;;;;;;;;;;;;;;;;;5045278;28;5141;-59
2023/02/09 06:20:59;;;;;;;;;;;;;;;;;;5042146;28;5210;-59
2023/02/09 06:23:24;;;;;;;;;;;;;;;;;;5044277;28;3207;-60
2023/02/09 06:25:52;;;;;;;;;;;;;;;;;;5043598;28;5307;-58
2023/02/09 06:28:19;;;;;;;;;;;;;;;;;;5047928;28;5014;-59
2023/02/09 06:30:47;;;;;;;;;;;;;;;;;;5045395;28;4603;-59
2023/02/09 06:33:12;;;;;;;;;;;;;;;;;;5042091;28;5515;-59
2023/02/09 06:35:38;;;;;;;;;;;;;;;;;;5046283;28;3393;-60
2023/02/09 06:38:03;;;;;;;;;;;;;;;;;;5046540;28;4995;-60
2023/02/09 06:40:28;;;;;;;;;;;;;;;;;;5042237;28;4901;-60
2023/02/09 06:42:53;;;;;;;;;;;;;;;;;;5045314;28;5121;-59
2023/02/09 06:45:19;;;;;;;;;;;;;;;;;;5038749;28;5386;-59
2023/02/09 06:47:44;;;;;;;;;;;;;;;;;;5045743;28;3359;-59
2023/02/09 06:51:43;;;;;;;;;;;;;;;;;;5103035;27;5142;-59
2023/02/09 06:54:08;;;;;;;;;;;;;;;;;;5079568;27;4623;-59
2023/02/09 06:56:34;;;;;;;;;;;;;;;;;;5080006;28;3337;-60
2023/02/09 06:58:59;;;;;;;;;;;;;;;;;;5078443;27;4881;-59
2023/02/09 07:01:24;;;;;;;;;;;;;;;;;;5067370;28;4493;-60
2023/02/09 07:03:49;;;;;;;;;;;;;;;;;;5062617;28;5455;-60
2023/02/09 07:06:16;;;;;;;;;;;;;;;;;;5065472;28;5063;-59
2023/02/09 07:08:41;;;;;;;;;;;;;;;;;;5064214;28;3495;-60
2023/02/09 07:11:07;;;;;;;;;;;;;;;;;;5061107;28;5175;-59
2023/02/09 07:13:33;;;;;;;;;;;;;;;;;;5062081;28;4867;-60
2023/02/09 07:15:58;;;;;;;;;;;;;;;;;;5063731;28;4832;-59
2023/02/09 07:18:24;;;;;;;;;;;;;;;;;;5061880;28;4994;-60
2023/02/09 07:20:53;;;;;;;;;;;;;;;;;;5065205;28;3407;-59
2023/02/09 07:23:18;;;;;;;;;;;;;;;;;;5064457;28;4849;-59
2023/02/09 07:25:43;;;;;;;;;;;;;;;;;;5065497;28;5111;-59
2023/02/09 07:28:08;;;;;;;;;;;;;;;;;;5075896;27;5348;-59
2023/02/09 07:30:34;;;;;;;;;;;;;;;;;;5073151;28;4939;-59
2023/02/09 07:32:59;;;;;;;;;;;;;;;;;;5081358;28;5021;-59
2023/02/09 07:35:24;;;;;;;;;;;;;;;;;;5076761;28;3472;-59
2023/02/09 07:37:50;;;;;;;;;;;;;;;;;;5073564;28;5090;-59
2023/02/09 07:40:15;;;;;;;;;;;;;;;;;;5079144;28;5116;-59
2023/02/09 07:42:40;;;;;;;;;;;;;;;;;;5074726;28;5005;-59
2023/02/09 07:45:06;;;;;;;;;;;;;;;;;;5073131;28;5179;-59
2023/02/09 07:47:33;;;;;;;;;;;;;;;;;;5058562;28;3441;-59
2023/02/09 07:49:58;;;;;;;;;;;;;;;;;;5075470;28;5046;-59
2023/02/09 07:52:23;;;;;;;;;;;;;;;;;;5079981;28;5082;-58
2023/02/09 07:54:49;;;;;;;;;;;;;;;;;;5075533;27;5039;-60
2023/02/09 07:57:15;;;;;;;;;;;;;;;;;;5076204;28;4484;-59
2023/02/09 07:59:40;;;;;;;;;;;;;;;;;;5077446;28;3445;-58
2023/02/09 08:02:06;;;;;;;;;;;;;;;;;;5072384;28;4548;-59
2023/02/09 08:04:31;;;;;;;;;;;;;;;;;;5065761;28;4915;-58
2023/02/09 08:06:56;;;;;;;;;;;;;;;;;;5062170;28;5667;-58
2023/02/09 08:09:21;;;;;;;;;;;;;;;;;;5061896;28;5007;-59
2023/02/09 08:11:48;;;;;;;;;;;;;;;;;;5061355;28;3431;-58
2023/02/09 08:14:18;;;;;;;;;;;;;;;;;;5057082;28;4974;-59
2023/02/09 08:16:43;;;;;;;;;;;;;;;;;;5065022;28;4635;-59
2023/02/09 08:19:12;;;;;;;;;;;;;;;;;;5063260;28;5088;-58
2023/02/09 08:21:37;;;;;;;;;;;;;;;;;;5089710;28;5126;-59
2023/02/09 08:24:04;;;;;;;;;;;;;;;;;;5062737;28;5064;-59
2023/02/09 08:26:29;;;;;;;;;;;;;;;;;;5063279;28;3578;-58
2023/02/09 08:28:54;;;;;;;;;;;;;;;;;;5057157;28;5163;-58
2023/02/09 08:31:20;;;;;;;;;;;;;;;;;;5064607;28;5312;-58
2023/02/09 08:33:46;;;;;;;;;;;;;;;;;;5055749;28;5011;-59
2023/02/09 08:36:12;;;;;;;;;;;;;;;;;;5064715;28;4449;-58
2023/02/09 08:38:37;;;;;;;;;;;;;;;;;;5061860;28;3335;-59
2023/02/09 08:41:06;;;;;;;;;;;;;;;;;;5064768;28;4895;-58
2023/02/09 08:43:31;;;;;;;;;;;;;;;;;;5060724;28;4658;-59
2023/02/09 08:46:10;;;;;;;;;;;;;;;;;;5059039;28;4913;-59
2023/02/09 08:48:37;;;;;;;;;;;;;;;;;;5060602;28;4649;-58
2023/02/09 08:51:02;;;;;;;;;;;;;;;;;;5065901;28;4606;-59
2023/02/09 08:53:27;;;;;;;;;;;;;;;;;;5063129;28;3516;-59
2023/02/09 08:55:53;;;;;;;;;;;;;;;;;;5060346;28;5042;-59
2023/02/09 08:58:18;;;;;;;;;;;;;;;;;;5062713;28;4471;-58
2023/02/09 09:00:43;;;;;;;;;;;;;;;;;;5063194;28;5250;-59
2023/02/09 09:03:08;;;;;;;;;;;;;;;;;;5062985;28;5529;-59
2023/02/09 09:05:34;;;;;;;;;;;;;;;;;;5058158;28;3595;-59
2023/02/09 09:07:59;;;;;;;;;;;;;;;;;;5058612;28;4882;-59
2023/02/09 09:10:24;;;;;;;;;;;;;;;;;;5064911;28;4869;-59
2023/02/09 09:12:50;;;;;;;;;;;;;;;;;;5063016;28;5016;-59
2023/02/09 09:15:15;;;;;;;;;;;;;;;;;;5061430;28;5186;-58
2023/02/09 09:17:40;;;;;;;;;;;;;;;;;;5068779;28;3477;-58
2023/02/09 09:20:06;;;;;;;;;;;;;;;;;;5043843;28;4963;-58
2023/02/09 09:22:31;;;;;;;;;;;;;;;;;;5057509;28;4675;-58
2023/02/09 09:24:57;;;;;;;;;;;;;;;;;;5064170;28;5378;-59
2023/02/09 09:27:22;;;;;;;;;;;;;;;;;;5063998;28;5071;-58
2023/02/09 09:29:48;;;;;;;;;;;;;;;;;;5071317;28;3148;-59
2023/02/09 09:32:13;;;;;;;;;;;;;;;;;;5068963;28;4916;-59
2023/02/09 09:34:39;;;;;;;;;;;;;;;;;;5069299;28;4648;-58
2023/02/09 09:37:04;;;;;;;;;;;;;;;;;;5071504;28;5130;-58
2023/02/09 09:39:29;;;;;;;;;;;;;;;;;;5099467;27;5003;-58
2023/02/09 09:41:56;;;;;;;;;;;;;;;;;;5071366;28;5056;-56
2023/02/09 09:44:29;;;;;;;;;;;;;;;;;;5065069;28;4530;-58
2023/02/09 09:46:59;;;;;;;;;;;;;;;;;;5061571;28;5099;-59
2023/02/09 09:49:25;;;;;;;;;;;;;;;;;;5064225;28;4808;-58
2023/02/09 09:51:52;;;;;;;;;;;;;;;;;;5064225;28;5157;-58
2023/02/09 09:54:22;;;;;;;;;;;;;;;;;;5067477;28;4662;-58
2023/02/09 09:56:47;;;;;;;;;;;;;;;;;;5065553;28;3324;-59
2023/02/09 09:59:16;;;;;;;;;;;;;;;;;;5068624;28;5297;-59
2023/02/09 10:01:42;;;;;;;;;;;;;;;;;;5068206;28;5133;-59
2023/02/09 10:04:13;;;;;;;;;;;;;;;;;;5058288;28;5027;-58
2023/02/09 10:06:39;;;;;;;;;;;;;;;;;;5059989;28;5054;-58
2023/02/09 10:09:06;;;;;;;;;;;;;;;;;;5072282;28;4491;-58
2023/02/09 10:11:32;;;;;;;;;;;;;;;;;;5064316;28;3461;-59
2023/02/09 10:13:58;;;;;;;;;;;;;;;;;;5060923;28;5965;-58
2023/02/09 10:16:25;;;;;;;;;;;;;;;;;;5053664;28;5067;-59
2023/02/09 10:18:51;;;;;;;;;;;;;;;;;;5057194;28;5095;-59
2023/02/09 10:21:16;;;;;;;;;;;;;;;;;;5071747;28;4910;-59
2023/02/09 10:23:43;;;;;;;;;;;;;;;;;;5064344;28;3267;-58
2023/02/09 10:26:09;;;;;;;;;;;;;;;;;;5064094;28;4979;-58
2023/02/09 10:29:00;;;;;;;;;;;;;;;;;;5068587;28;5099;-59
2023/02/09 10:31:32;;;;;;;;;;;;;;;;;;5059262;28;4729;-58
2023/02/09 10:34:02;;;;;;;;;;;;;;;;;;5053485;28;4506;-58
2023/02/09 10:36:29;;;;;;;;;;;;;;;;;;5061380;28;5107;-58
2023/02/09 10:39:10;;;;;;;;;;;;;;;;;;5062436;28;5103;-55
2023/02/09 10:41:35;;;;;;;;;;;;;;;;;;5065982;28;3391;-58
2023/02/09 10:44:04;;;;;;;;;;;;;;;;;;5069910;28;4854;-58
2023/02/09 10:46:29;;;;;;;;;;;;;;;;;;5059685;28;5022;-58
2023/02/09 10:48:54;;;;;;;;;;;;;;;;;;5060054;28;4875;-59
2023/02/09 10:51:27;;;;;;;;;;;;;;;;;;5064384;28;5024;-59
2023/02/09 10:54:00;;;;;;;;;;;;;;;;;;5067630;28;3404;-59
2023/02/09 10:56:46;;;;;;;;;;;;;;;;;;5059131;28;5069;-58
2023/02/09 10:59:18;;;;;;;;;;;;;;;;;;5062500;28;4996;-59
2023/02/09 11:01:43;;;;;;;;;;;;;;;;;;5057281;28;5047;-58
2023/02/09 11:04:15;;;;;;;;;;;;;;;;;;5061878;28;5065;-59
2023/02/09 11:06:46;;;;;;;;;;;;;;;;;;5057709;28;4615;-58
2023/02/09 11:09:13;;;;;;;;;;;;;;;;;;5054740;28;4501;-59
2023/02/09 11:11:39;;;;;;;;;;;;;;;;;;5064338;28;3441;-58
2023/02/09 11:14:10;;;;;;;;;;;;;;;;;;5066274;28;5149;-60
2023/02/09 11:16:39;;;;;;;;;;;;;;;;;;5059874;28;5052;-58
2023/02/09 11:19:21;;;;;;;;;;;;;;;;;;5068263;28;5280;-58
2023/02/09 11:21:55;;;;;;;;;;;;;;;;;;5061085;28;4484;-58
2023/02/09 11:24:39;;;;;;;;;;;;;;;;;;5061002;28;5041;-59
2023/02/09 11:27:23;;;;;;;;;;;;;;;;;;5060211;28;4434;-58
2023/02/09 11:29:52;;;;;;;;;;;;;;;;;;5062581;28;3487;-58
2023/02/09 11:32:18;;;;;;;;;;;;;;;;;;5059065;28;4495;-60
2023/02/09 11:34:55;;;;;;;;;;;;;;;;;;5058432;28;5069;-58
2023/02/09 11:37:27;;;;;;;;;;;;;;;;;;5058565;28;5051;-59
2023/02/09 11:39:55;;;;;;;;;;;;;;;;;;5065273;28;5161;-59
2023/02/09 11:45:08;;;;;;;;;;;;;;;;;;5047353;28;5088;-61
2023/02/09 11:47:52;;;;;;;;;;;;;;;;;;5048956;28;3646;-60
2023/02/09 11:50:27;;;;;;;;;;;;;;;;;;5052106;28;5236;-60
2023/02/09 11:53:00;;;;;;;;;;;;;;;;;;5054080;28;5033;-60
2023/02/09 11:55:26;;;;;;;;;;;;;;;;;;5051668;28;5010;-60
2023/02/09 11:57:52;;;;;;;;;;;;;;;;;;5055147;28;5045;-61
2023/02/09 12:00:21;;;;;;;;;;;;;;;;;;5051708;28;5113;-60
2023/02/09 12:02:52;;;;;;;;;;;;;;;;;;5052620;28;3546;-61
2023/02/09 12:05:18;;;;;;;;;;;;;;;;;;5052561;28;5225;-61
2023/02/09 12:07:43;;;;;;;;;;;;;;;;;;5052352;28;4690;-61
2023/02/09 12:10:14;;;;;;;;;;;;;;;;;;5052138;28;5043;-61
2023/02/09 12:12:43;;;;;;;;;;;;;;;;;;5053244;28;4490;-61
2023/02/09 12:15:15;;;;;;;;;;;;;;;;;;5051882;28;4509;-60
2023/02/09 12:17:47;;;;;;;;;;;;;;;;;;5056072;28;3549;-60
2023/02/09 12:20:29;;;;;;;;;;;;;;;;;;5053677;28;5132;-61
2023/02/09 12:22:55;;;;;;;;;;;;;;;;;;5053512;28;5091;-60
2023/02/09 12:25:44;;;;;;;;;;;;;;;;;;5056578;28;5693;-60
2023/02/09 12:28:09;;;;;;;;;;;;;;;;;;5064305;28;5082;-58
2023/02/09 12:30:40;;;;;;;;;;;;;;;;;;5068141;28;5065;-60
2023/02/09 12:33:21;;;;;;;;;;;;;;;;;;5071299;28;5221;-59
2023/02/09 12:36:01;;;;;;;;;;;;;;;;;;5055000;28;3413;-60
2023/02/09 12:38:42;;;;;;;;;;;;;;;;;;5048964;28;5020;-60
2023/02/09 12:41:07;;;;;;;;;;;;;;;;;;5061374;28;4587;-59
2023/02/09 12:43:33;;;;;;;;;;;;;;;;;;5068868;28;4956;-60
2023/02/09 12:46:13;;;;;;;;;;;;;;;;;;5064710;28;5072;-59
2023/02/09 12:48:58;;;;;;;;;;;;;;;;;;5071253;28;5071;-60
2023/02/09 12:51:41;;;;;;;;;;;;;;;;;;5070087;28;5226;-59
2023/02/09 12:54:25;;;;;;;;;;;;;;;;;;5063025;28;5034;-60
2023/02/09 12:56:51;;;;;;;;;;;;;;;;;;5072232;28;3377;-60
2023/02/09 12:59:17;;;;;;;;;;;;;;;;;;5074471;28;4764;-60
2023/02/09 13:02:01;;;;;;;;;;;;;;;;;;5077771;28;4873;-60
2023/02/09 13:04:28;;;;;;;;;;;;;;;;;;5075644;28;4934;-59
2023/02/09 13:06:54;;;;;;;;;;;;;;;;;;5070487;28;5172;-60
2023/02/09 13:09:27;;;;;;;;;;;;;;;;;;5073044;28;5428;-60
2023/02/09 13:11:55;;;;;;;;;;;;;;;;;;5061610;28;1972;-60
2023/02/09 13:14:21;;;;;;;;;;;;;;;;;;5072199;28;4621;-60
2023/02/09 13:16:49;;;;;;;;;;;;;;;;;;5069341;28;5034;-60
2023/02/09 13:19:15;;;;;;;;;;;;;;;;;;5069209;28;4979;-60
2023/02/09 13:21:59;;;;;;;;;;;;;;;;;;5073558;28;5144;-60
2023/02/09 13:24:34;;;;;;;;;;;;;;;;;;5067578;28;4574;-59
2023/02/09 13:27:00;;;;;;;;;;;;;;;;;;5068513;28;4637;-61
2023/02/09 13:29:26;;;;;;;;;;;;;;;;;;5067201;28;3382;-60
2023/02/09 13:32:00;;;;;;;;;;;;;;;;;;5067819;28;4726;-59
2023/02/09 13:34:35;;;;;;;;;;;;;;;;;;5073119;28;4864;-61
2023/02/09 13:37:06;;;;;;;;;;;;;;;;;;5066718;28;5045;-60
2023/02/09 13:39:34;;;;;;;;;;;;;;;;;;5075521;28;4987;-61
2023/02/09 13:41:59;;;;;;;;;;;;;;;;;;5075338;28;4646;-61
2023/02/09 13:44:25;;;;;;;;;;;;;;;;;;5076882;28;4742;-60
2023/02/09 13:46:55;;;;;;;;;;;;;;;;;;5071168;28;4971;-60
2023/02/09 13:49:20;;;;;;;;;;;;;;;;;;5071413;28;5307;-60
2023/02/09 13:51:46;;;;;;;;;;;;;;;;;;5079101;28;5532;-60
2023/02/09 13:54:18;;;;;;;;;;;;;;;;;;5069066;28;5180;-61
2023/02/09 13:56:43;;;;;;;;;;;;;;;;;;5080369;28;3291;-61
2023/02/09 13:59:10;;;;;;;;;;;;;;;;;;5068255;28;4991;-61
2023/02/09 14:01:35;;;;;;;;;;;;;;;;;;5064591;28;5064;-61
2023/02/09 14:04:14;;;;;;;;;;;;;;;;;;5065938;28;4963;-60
2023/02/09 14:06:43;;;;;;;;;;;;;;;;;;5073172;28;4974;-60
2023/02/09 14:09:12;;;;;;;;;;;;;;;;;;5053911;28;5167;-61
2023/02/09 14:12:04;;;;;;;;;;;;;;;;;;5051965;28;3411;-60
2023/02/09 14:16:05;;;;;;;;;;;;;;;;;;5058724;28;4997;-60
2023/02/09 14:17:25;;;;;;;;;;;;;;;;;;5072385;28;4975;-61
2023/02/09 14:19:51;;;;;;;;;;;;;;;;;;5063508;28;4472;-61
2023/02/09 14:22:29;;;;;;;;;;;;;;;;;;5065746;28;5174;-61
2023/02/09 14:24:54;;;;;;;;;;;;;;;;;;5092810;28;4941;-61
2023/02/09 14:27:24;;;;;;;;;;;;;;;;;;5074710;28;5177;-58
2023/02/09 14:29:49;;;;;;;;;;;;;;;;;;5064377;28;3581;-61
2023/02/09 14:32:34;;;;;;;;;;;;;;;;;;5064171;28;5037;-60
2023/02/09 14:35:15;;;;;;;;;;;;;;;;;;5068601;28;4926;-61
2023/02/09 14:37:40;;;;;;;;;;;;;;;;;;5067919;28;4521;-60
2023/02/09 14:40:05;;;;;;;;;;;;;;;;;;5068578;28;4979;-61
2023/02/09 14:42:31;;;;;;;;;;;;;;;;;;5061866;28;5169;-62
2023/02/09 14:45:00;;;;;;;;;;;;;;;;;;5060656;28;5198;-60
2023/02/09 14:47:29;;;;;;;;;;;;;;;;;;5066797;28;3929;-61
2023/02/09 14:49:58;;;;;;;;;;;;;;;;;;5060196;28;5428;-61
2023/02/09 14:52:27;;;;;;;;;;;;;;;;;;5073751;28;4492;-60
2023/02/09 14:54:52;;;;;;;;;;;;;;;;;;5070375;28;5173;-61
2023/02/09 14:57:19;;;;;;;;;;;;;;;;;;5077471;28;4962;-60
2023/02/09 14:59:44;;;;;;;;;;;;;;;;;;5065929;28;3425;-60
2023/02/09 15:02:17;;;;;;;;;;;;;;;;;;5062801;28;5150;-59
2023/02/09 15:04:43;;;;;;;;;;;;;;;;;;5073955;28;5140;-59
2023/02/09 15:07:08;;;;;;;;;;;;;;;;;;5067170;28;5114;-60
2023/02/09 15:09:34;;;;;;;;;;;;;;;;;;5065749;28;4493;-59
2023/02/09 15:12:05;;;;;;;;;;;;;;;;;;5052596;28;5595;-59
2023/02/09 15:14:38;;;;;;;;;;;;;;;;;;5071389;28;3537;-59
2023/02/09 15:17:08;;;;;;;;;;;;;;;;;;5070746;28;5221;-60
2023/02/09 15:19:34;;;;;;;;;;;;;;;;;;5069188;28;5255;-59
2023/02/09 15:21:59;;;;;;;;;;;;;;;;;;5074075;28;5078;-60
2023/02/09 15:24:24;;;;;;;;;;;;;;;;;;5071343;28;5126;-60
2023/02/09 15:26:50;;;;;;;;;;;;;;;;;;5072269;28;1143;-60
2023/02/09 15:29:15;;;;;;;;;;;;;;;;;;5064842;28;4479;-60
2023/02/09 15:31:40;;;;;;;;;;;;;;;;;;5070421;28;5020;-61
2023/02/09 15:34:06;;;;;;;;;;;;;;;;;;5066679;28;5076;-64
2023/02/09 15:36:31;;;;;;;;;;;;;;;;;;5069635;28;5125;-64
2023/02/09 15:38:56;;;;;;;;;;;;;;;;;;5065821;28;5066;-60
2023/02/09 15:49:40;;;;;;;;;;;;;;;;;;5045084;28;5096;-57
2023/02/09 15:52:06;;;;;;;;;;;;;;;;;;5036952;28;4487;-56
2023/02/09 15:54:31;;;;;;;;;;;;;;;;;;5039670;28;5179;-57
2023/02/09 15:56:57;;;;;;;;;;;;;;;;;;5048443;28;5182;-65
2023/02/09 15:59:23;;;;;;;;;;;;;;;;;;5074066;28;3351;-61
2023/02/09 16:01:48;;;;;;;;;;;;;;;;;;5078982;28;4650;-57
2023/02/09 16:04:13;;;;;;;;;;;;;;;;;;5070451;28;5219;-61
2023/02/09 16:06:39;;;;;;;;;;;;;;;;;;5078182;28;4994;-62
2023/02/09 16:09:05;;;;;;;;;;;;;;;;;;5071415;28;4641;-61
2023/02/09 16:11:31;;;;;;;;;;;;;;;;;;5083666;28;3348;-58
2023/02/09 16:13:57;;;;;;;;;;;;;;;;;;5063622;28;5098;-61
2023/02/09 16:16:24;;;;;;;;;;;;;;;;;;5070314;28;4525;-60
2023/02/09 16:18:49;;;;;;;;;;;;;;;;;;5070940;28;5042;-59
2023/02/09 16:21:24;;;;;;;;;;;;;;;;;;5061852;28;4469;-60
2023/02/09 16:23:50;;;;;;;;;;;;;;;;;;5073233;28;3075;-63
2023/02/09 16:26:15;;;;;;;;;;;;;;;;;;5063503;28;5092;-62
2023/02/09 16:28:40;;;;;;;;;;;;;;;;;;5072442;28;5120;-61
2023/02/09 16:31:06;;;;;;;;;;;;;;;;;;5080617;28;4775;-61
2023/02/09 16:33:31;;;;;;;;;;;;;;;;;;5068869;28;5158;-57
2023/02/09 16:35:57;;;;;;;;;;;;;;;;;;5074140;28;4509;-59
2023/02/09 16:38:23;;;;;;;;;;;;;;;;;;5070308;28;3390;-62
2023/02/09 16:40:48;;;;;;;;;;;;;;;;;;5067345;28;4534;-61
2023/02/09 16:43:14;;;;;;;;;;;;;;;;;;5061028;28;4910;-58
2023/02/09 16:45:39;;;;;;;;;;;;;;;;;;5062195;28;5097;-56
2023/02/09 16:48:05;;;;;;;;;;;;;;;;;;5060264;28;4734;-64
2023/02/09 16:50:31;;;;;;;;;;;;;;;;;;5064017;28;3598;-65
2023/02/09 16:52:57;;;;;;;;;;;;;;;;;;5073710;28;5063;-65
2023/02/09 16:55:25;;;;;;;;;;;;;;;;;;5056991;28;5100;-67
2023/02/09 16:57:53;;;;;;;;;;;;;;;;;;5073085;28;4999;-65
2023/02/09 17:00:19;;;;;;;;;;;;;;;;;;5071003;28;5051;-63
2023/02/09 17:02:54;;;;;;;;;;;;;;;;;;5082599;28;1133;-62
2023/02/09 17:05:21;;;;;;;;;;;;;;;;;;5066840;28;4934;-61
2023/02/09 17:07:47;;;;;;;;;;;;;;;;;;5070035;28;4565;-64
2023/02/09 17:10:14;;;;;;;;;;;;;;;;;;5072357;28;5122;-64
2023/02/09 17:12:39;;;;;;;;;;;;;;;;;;5070315;28;5037;-62
2023/02/09 17:15:04;;;;;;;;;;;;;;;;;;5070574;28;5016;-63
2023/02/09 17:17:30;;;;;;;;;;;;;;;;;;5071250;28;1598;-68
2023/02/09 17:19:55;;;;;;;;;;;;;;;;;;5068006;28;4991;-62
2023/02/09 17:22:20;;;;;;;;;;;;;;;;;;5061409;28;4639;-65